Time;durP1;ratioP1;P1;durP2;ratioP2;P2;SDS_P1;SDS_P2;PMS_P1;PMS_P2;Temp;Humidity;BMP_temperature;BMP_pressure;BME280_temperature;BME280_humidity;BME280_pressure;Samples;Min_cycle;Max_cycle;Signal;HPM_P1;HPM_P2
2023/04/15 00:01:28;;;;;;;5.37;2.30;;;6.70;98.00;;;;;;5054355;28;20463;-64
2023/04/15 00:03:58;;;;;;;3.80;2.37;;;6.60;98.00;;;;;;5054336;28;20950;-64
2023/04/15 00:06:25;;;;;;;2.93;1.90;;;6.50;98.00;;;;;;5054004;28;20458;-64
2023/04/15 00:08:54;;;;;;;3.80;2.13;;;6.50;98.00;;;;;;5054274;28;20486;-64
2023/04/15 00:11:21;;;;;;;5.13;2.27;;;6.40;98.00;;;;;;5054284;28;20471;-64
2023/04/15 00:13:48;;;;;;;2.80;2.00;;;6.50;98.00;;;;;;5053882;28;20948;-65
2023/04/15 00:16:19;;;;;;;2.43;2.00;;;6.60;98.00;;;;;;5054084;28;20491;-64
2023/04/15 00:18:46;;;;;;;2.40;2.00;;;6.40;98.00;;;;;;5054033;28;20468;-65
2023/04/15 00:21:13;;;;;;;3.93;2.13;;;6.40;98.00;;;;;;5054202;28;20851;-63
2023/04/15 00:23:40;;;;;;;3.17;1.87;;;6.40;98.00;;;;;;5054049;28;20520;-65
2023/04/15 00:26:07;;;;;;;3.30;1.83;;;6.30;98.00;;;;;;5054115;28;20953;-64
2023/04/15 00:28:34;;;;;;;3.70;2.37;;;6.40;98.00;;;;;;5054114;28;20622;-64
2023/04/15 00:31:05;;;;;;;3.30;1.97;;;6.50;98.00;;;;;;5053784;28;20469;-64
2023/04/15 00:33:33;;;;;;;4.23;2.00;;;6.60;98.00;;;;;;5053490;28;20456;-66
2023/04/15 00:36:00;;;;;;;3.67;2.23;;;6.70;98.00;;;;;;5053027;28;20458;-65
2023/04/15 00:38:27;;;;;;;2.83;1.90;;;6.70;98.00;;;;;;5053163;28;20830;-63
2023/04/15 00:40:55;;;;;;;3.90;2.03;;;6.70;98.00;;;;;;5052923;28;20488;-64
2023/04/15 00:43:22;;;;;;;3.10;1.97;;;6.60;98.00;;;;;;5053614;28;20500;-66
2023/04/15 00:45:49;;;;;;;4.03;1.90;;;6.60;98.00;;;;;;5053167;28;20465;-64
2023/04/15 00:48:17;;;;;;;6.70;2.47;;;6.60;98.00;;;;;;5053584;28;20815;-66
2023/04/15 00:50:45;;;;;;;2.83;2.10;;;6.60;98.00;;;;;;5053460;28;20460;-64
2023/04/15 00:53:12;;;;;;;3.93;2.37;;;6.40;98.00;;;;;;5053645;28;20515;-65
2023/04/15 00:55:40;;;;;;;2.20;2.00;;;6.20;98.00;;;;;;5053294;28;20449;-64
2023/04/15 00:58:08;;;;;;;7.03;2.00;;;6.10;98.00;;;;;;5052058;28;20537;-64
2023/04/15 01:00:37;;;;;;;3.07;2.03;;;6.00;98.00;;;;;;5053026;28;20468;-64
2023/04/15 01:03:04;;;;;;;2.57;1.73;;;5.90;98.00;;;;;;5053253;28;20460;-65
2023/04/15 01:05:33;;;;;;;2.70;2.27;;;5.80;98.00;;;;;;5053277;28;20462;-64
2023/04/15 01:08:01;;;;;;;3.27;2.10;;;5.80;98.00;;;;;;5052934;28;20810;-66
2023/04/15 01:10:28;;;;;;;5.33;1.83;;;5.80;98.00;;;;;;5053300;28;20456;-65
2023/04/15 01:12:56;;;;;;;4.50;1.73;;;5.70;98.00;;;;;;5052869;28;20467;-64
2023/04/15 01:15:24;;;;;;;2.63;1.80;;;5.70;98.00;;;;;;5051857;28;20469;-65
2023/04/15 01:17:51;;;;;;;2.70;2.20;;;5.70;98.00;;;;;;5052967;28;20810;-63
2023/04/15 01:20:22;;;;;;;2.87;2.00;;;5.70;98.00;;;;;;5053146;28;20875;-63
2023/04/15 01:22:51;;;;;;;2.83;1.63;;;5.90;98.00;;;;;;5052886;28;20508;-64
2023/04/15 01:25:30;;;;;;;3.27;1.93;;;5.90;98.00;;;;;;5053104;28;20824;-63
2023/04/15 01:27:58;;;;;;;2.73;1.80;;;5.70;98.00;;;;;;5052538;28;20483;-64
2023/04/15 01:30:25;;;;;;;2.80;1.77;;;5.50;98.00;;;;;;5051788;28;20969;-64
2023/04/15 01:32:52;;;;;;;2.40;1.80;;;5.50;98.00;;;;;;5051860;28;20462;-64
2023/04/15 01:35:21;;;;;;;6.60;2.37;;;5.60;98.00;;;;;;5052529;28;20794;-64
2023/04/15 01:37:50;;;;;;;3.10;1.73;;;5.70;98.00;;;;;;5051984;28;20454;-65
2023/04/15 01:40:17;;;;;;;3.13;2.27;;;5.50;98.00;;;;;;5052499;28;20458;-65
2023/04/15 01:42:46;;;;;;;2.77;2.27;;;5.50;98.00;;;;;;5052532;28;20463;-64
2023/04/15 01:45:13;;;;;;;2.97;1.87;;;5.50;98.00;;;;;;5052146;28;20561;-64
2023/04/15 01:47:40;;;;;;;1.83;1.40;;;5.50;98.00;;;;;;5052443;28;20560;-64
2023/04/15 01:50:08;;;;;;;2.93;1.63;;;5.50;98.00;;;;;;5052394;28;20996;-63
2023/04/15 01:52:35;;;;;;;1.97;1.73;;;5.60;98.00;;;;;;5051909;28;20455;-65
2023/04/15 01:55:03;;;;;;;3.03;1.53;;;5.50;98.00;;;;;;5052177;28;20467;-63
2023/04/15 01:57:30;;;;;;;1.87;1.40;;;5.40;98.00;;;;;;5052326;28;20459;-64
2023/04/15 01:59:58;;;;;;;1.60;1.60;;;5.30;98.00;;;;;;5052350;28;20463;-64
2023/04/15 02:02:25;;;;;;;2.60;1.80;;;5.20;98.00;;;;;;5052083;28;20451;-64
2023/04/15 02:04:52;;;;;;;3.40;1.63;;;5.10;98.00;;;;;;5052062;28;20538;-64
2023/04/15 02:07:19;;;;;;;1.70;1.53;;;5.10;98.00;;;;;;5052123;28;20450;-64
2023/04/15 02:09:46;;;;;;;1.70;1.33;;;5.10;98.00;;;;;;5051982;28;20941;-64
2023/04/15 02:12:13;;;;;;;2.10;1.60;;;5.10;98.00;;;;;;5051912;28;20878;-64
2023/04/15 02:14:40;;;;;;;1.70;1.50;;;4.90;98.00;;;;;;5050379;28;20520;-64
2023/04/15 02:17:09;;;;;;;2.93;1.70;;;4.90;98.00;;;;;;5050967;28;20481;-64
2023/04/15 02:19:38;;;;;;;2.33;1.90;;;4.80;98.00;;;;;;5051946;28;20465;-63
2023/04/15 02:22:06;;;;;;;2.13;1.60;;;4.90;98.00;;;;;;5052078;28;20457;-64
2023/04/15 02:24:34;;;;;;;1.60;1.50;;;5.00;98.00;;;;;;5052111;28;20451;-64
2023/04/15 02:27:02;;;;;;;2.40;1.77;;;4.80;98.00;;;;;;5050732;28;20935;-63
2023/04/15 02:29:31;;;;;;;1.93;1.87;;;4.70;98.00;;;;;;5051725;28;20571;-63
2023/04/15 02:31:58;;;;;;;2.17;1.83;;;4.70;98.00;;;;;;5051632;28;20511;-65
2023/04/15 02:34:26;;;;;;;3.43;1.90;;;4.90;98.00;;;;;;5051686;28;20503;-63
2023/04/15 02:36:56;;;;;;;3.03;2.07;;;4.90;98.00;;;;;;5051440;28;20463;-63
2023/04/15 02:39:23;;;;;;;3.20;1.70;;;4.90;98.00;;;;;;5051735;28;20460;-63
2023/04/15 02:41:51;;;;;;;2.53;1.83;;;4.70;98.00;;;;;;5051394;28;20588;-65
2023/04/15 02:44:19;;;;;;;1.93;1.70;;;4.90;98.00;;;;;;5051446;28;20462;-64
2023/04/15 02:46:51;;;;;;;3.83;2.00;;;5.00;98.00;;;;;;5055082;28;20470;-63
2023/04/15 02:49:18;;;;;;;1.97;1.50;;;5.00;98.00;;;;;;5055756;28;20669;-64
2023/04/15 02:51:48;;;;;;;1.80;1.60;;;4.80;98.00;;;;;;5054351;28;20951;-64
2023/04/15 02:54:15;;;;;;;2.23;1.73;;;4.70;98.00;;;;;;5055613;28;20960;-63
2023/04/15 02:56:42;;;;;;;1.57;1.50;;;4.70;98.00;;;;;;5055580;28;20463;-64
2023/04/15 02:59:09;;;;;;;2.07;1.80;;;4.70;98.00;;;;;;5055603;28;20780;-64
2023/04/15 03:01:36;;;;;;;2.00;1.73;;;4.70;98.00;;;;;;5055542;28;20459;-65
2023/04/15 03:04:04;;;;;;;2.80;1.57;;;4.60;98.00;;;;;;5055608;28;20461;-64
2023/04/15 03:06:31;;;;;;;2.50;1.60;;;4.60;98.00;;;;;;5055377;28;20495;-65
2023/04/15 03:09:00;;;;;;;2.03;1.60;;;4.60;98.00;;;;;;5055377;28;20555;-66
2023/04/15 03:11:30;;;;;;;2.17;1.70;;;4.60;98.00;;;;;;5054345;28;20486;-65
2023/04/15 03:13:57;;;;;;;2.23;1.43;;;4.70;98.00;;;;;;5055104;28;20468;-64
2023/04/15 03:16:24;;;;;;;2.53;1.90;;;4.70;98.00;;;;;;5055560;28;20516;-65
2023/04/15 03:18:52;;;;;;;4.60;1.67;;;4.90;98.00;;;;;;5055530;28;20455;-64
2023/04/15 03:21:19;;;;;;;1.60;1.47;;;5.00;98.00;;;;;;5055470;28;20454;-64
2023/04/15 03:23:48;;;;;;;1.50;1.20;;;5.10;98.00;;;;;;5055360;28;20461;-64
2023/04/15 03:26:27;;;;;;;2.07;1.63;;;5.20;98.00;;;;;;5055313;28;20469;-63
2023/04/15 03:28:54;;;;;;;1.80;1.50;;;5.20;98.00;;;;;;5054971;28;20574;-64
2023/04/15 03:31:21;;;;;;;1.90;1.33;;;5.20;98.00;;;;;;5055139;28;20456;-64
2023/04/15 03:33:48;;;;;;;2.43;1.70;;;5.20;98.00;;;;;;5054791;28;20546;-65
2023/04/15 03:36:15;;;;;;;2.10;1.50;;;5.10;98.00;;;;;;5054733;28;20456;-63
2023/04/15 03:38:42;;;;;;;2.97;1.50;;;5.20;98.00;;;;;;5054823;28;20876;-64
2023/04/15 03:41:10;;;;;;;3.40;1.80;;;5.30;98.00;;;;;;5054393;28;20451;-63
2023/04/15 03:43:39;;;;;;;2.90;1.60;;;5.20;98.00;;;;;;5054791;28;20491;-63
2023/04/15 03:46:07;;;;;;;2.43;1.50;;;5.40;98.00;;;;;;5054489;28;20941;-63
2023/04/15 03:48:35;;;;;;;5.47;3.07;;;5.40;98.00;;;;;;5054529;28;20483;-63
2023/04/15 03:51:02;;;;;;;2.63;1.70;;;5.20;98.00;;;;;;5054390;28;20472;-63
2023/04/15 03:53:29;;;;;;;9.60;1.80;;;5.00;98.00;;;;;;5054569;28;21094;-63
2023/04/15 03:55:57;;;;;;;3.63;1.53;;;5.00;98.00;;;;;;5053820;28;20458;-64
2023/04/15 03:58:24;;;;;;;2.90;1.33;;;4.90;98.00;;;;;;5054563;28;20461;-63
2023/04/15 04:00:53;;;;;;;1.90;1.57;;;4.90;98.00;;;;;;5054343;28;20985;-64
2023/04/15 04:03:21;;;;;;;7.20;1.60;;;5.00;98.00;;;;;;5054299;28;20463;-64
2023/04/15 04:05:48;;;;;;;2.10;1.90;;;5.10;98.00;;;;;;5053717;28;20524;-64
2023/04/15 04:08:15;;;;;;;1.37;1.33;;;5.10;98.00;;;;;;5054363;28;20465;-64
2023/04/15 04:10:42;;;;;;;2.40;1.67;;;4.90;98.00;;;;;;5054030;28;20460;-64
2023/04/15 04:13:10;;;;;;;2.43;1.70;;;4.90;98.00;;;;;;5054163;28;20473;-64
2023/04/15 04:15:37;;;;;;;3.07;1.87;;;4.80;98.00;;;;;;5054234;28;20465;-65
2023/04/15 04:18:07;;;;;;;4.20;1.60;;;5.00;98.00;;;;;;5054277;28;20491;-64
2023/04/15 04:20:34;;;;;;;1.30;1.20;;;5.00;98.00;;;;;;5053735;28;20455;-63
2023/04/15 04:23:01;;;;;;;3.20;1.80;;;5.00;98.00;;;;;;5053608;28;20458;-63
2023/04/15 04:25:28;;;;;;;5.23;1.90;;;5.10;98.00;;;;;;5053526;28;20981;-62
2023/04/15 04:27:55;;;;;;;2.07;1.57;;;5.10;98.00;;;;;;5053282;28;20519;-63
2023/04/15 04:30:22;;;;;;;1.90;1.60;;;4.90;98.00;;;;;;5053494;28;20509;-64
2023/04/15 04:32:50;;;;;;;2.43;1.50;;;4.60;98.00;;;;;;5052634;28;20453;-64
2023/04/15 04:35:21;;;;;;;3.83;1.73;;;4.60;98.00;;;;;;5053055;28;20528;-63
2023/04/15 04:37:49;;;;;;;2.40;1.53;;;4.50;98.00;;;;;;5052789;28;20547;-65
2023/04/15 04:40:17;;;;;;;2.30;1.50;;;4.40;98.00;;;;;;5052967;28;20561;-64
2023/04/15 04:42:44;;;;;;;3.30;2.23;;;4.30;98.00;;;;;;5052951;28;20975;-64
2023/04/15 04:45:12;;;;;;;2.70;1.77;;;4.30;98.00;;;;;;5052777;28;20501;-64
2023/04/15 04:47:40;;;;;;;11.33;2.43;;;4.30;98.00;;;;;;5053061;28;20942;-64
2023/04/15 04:50:09;;;;;;;2.00;1.73;;;4.30;98.00;;;;;;5052598;28;20484;-63
2023/04/15 04:52:38;;;;;;;1.83;1.43;;;4.30;98.00;;;;;;5052753;28;20556;-64
2023/04/15 04:55:07;;;;;;;2.23;1.50;;;4.20;98.00;;;;;;5036406;28;21090;-64
2023/04/15 04:57:36;;;;;;;2.40;1.33;;;4.30;98.00;;;;;;5032704;28;20470;-64
2023/04/15 05:00:04;;;;;;;1.30;1.17;;;4.20;98.00;;;;;;5032615;28;20548;-63
2023/04/15 05:02:31;;;;;;;1.80;1.60;;;4.10;98.00;;;;;;5032830;28;20550;-65
2023/04/15 05:04:59;;;;;;;3.17;2.30;;;4.10;98.00;;;;;;5032534;28;20469;-62
2023/04/15 05:07:26;;;;;;;2.33;1.47;;;4.20;98.00;;;;;;5032037;28;20521;-65
2023/04/15 05:09:55;;;;;;;1.77;1.40;;;4.20;98.00;;;;;;5031988;28;20580;-63
2023/04/15 05:12:22;;;;;;;2.47;1.50;;;4.20;98.00;;;;;;5032224;28;20466;-65
2023/04/15 05:14:49;;;;;;;2.27;1.80;;;4.30;98.00;;;;;;5032683;28;20451;-64
2023/04/15 05:17:16;;;;;;;2.17;1.80;;;4.50;98.00;;;;;;5032592;28;20458;-63
2023/04/15 05:19:45;;;;;;;3.90;1.90;;;4.50;98.00;;;;;;5032845;28;20461;-65
2023/04/15 05:22:12;;;;;;;2.57;1.90;;;4.60;98.00;;;;;;5031839;28;20983;-64
2023/04/15 05:24:39;;;;;;;4.50;2.40;;;4.70;98.00;;;;;;5032947;28;20507;-64
2023/04/15 05:27:10;;;;;;;1.77;1.33;;;4.60;98.00;;;;;;5032646;28;20517;-64
2023/04/15 05:29:37;;;;;;;2.23;1.60;;;4.40;98.00;;;;;;5032710;28;20546;-64
2023/04/15 05:32:04;;;;;;;1.50;1.50;;;4.40;98.00;;;;;;5032459;28;20461;-65
2023/04/15 05:34:32;;;;;;;3.00;2.07;;;4.40;98.00;;;;;;5032721;28;20451;-64
2023/04/15 05:36:59;;;;;;;2.30;1.83;;;4.50;98.00;;;;;;5032016;28;20466;-64
2023/04/15 05:39:26;;;;;;;1.80;1.70;;;4.60;98.00;;;;;;5032439;28;20532;-64
2023/04/15 05:41:53;;;;;;;3.43;2.07;;;4.90;98.00;;;;;;5032311;28;20556;-64
2023/04/15 05:44:22;;;;;;;4.33;1.80;;;4.90;98.00;;;;;;5032312;28;20450;-64
2023/04/15 05:46:49;;;;;;;2.50;2.10;;;4.80;98.00;;;;;;5032135;28;20508;-67
2023/04/15 05:49:15;;;;;;;4.13;1.50;;;4.80;98.00;;;;;;5032089;28;20536;-67
2023/04/15 05:51:47;;;;;;;2.00;1.50;;;4.90;98.00;;;;;;5032134;28;20518;-68
2023/04/15 05:54:14;;;;;;;1.80;1.50;;;4.90;98.00;;;;;;5032120;28;20515;-67
2023/04/15 05:56:41;;;;;;;2.13;1.80;;;5.00;98.00;;;;;;5032429;28;20509;-66
2023/04/15 05:59:08;;;;;;;3.70;2.10;;;5.00;98.00;;;;;;5032468;28;20465;-66
2023/04/15 06:01:38;;;;;;;2.23;1.63;;;5.00;98.00;;;;;;5032521;28;20470;-62
2023/04/15 06:04:07;;;;;;;4.17;2.10;;;5.10;98.00;;;;;;5032774;28;20465;-62
2023/04/15 06:06:35;;;;;;;2.83;1.83;;;5.10;98.00;;;;;;5032491;28;20462;-61
2023/04/15 06:09:02;;;;;;;1.90;1.40;;;5.00;98.00;;;;;;5031281;28;20483;-63
2023/04/15 06:11:29;;;;;;;2.70;1.83;;;5.10;98.00;;;;;;5032427;28;20471;-61
2023/04/15 06:13:56;;;;;;;2.17;1.40;;;5.20;98.00;;;;;;5032294;28;20462;-61
2023/04/15 06:16:26;;;;;;;4.47;2.03;;;5.50;98.00;;;;;;5032607;28;20512;-61
2023/04/15 06:18:54;;;;;;;3.17;2.10;;;5.80;98.00;;;;;;5032254;28;20459;-61
2023/04/15 06:21:21;;;;;;;3.23;2.20;;;5.90;98.00;;;;;;5032478;28;20531;-62
2023/04/15 06:23:48;;;;;;;2.33;1.60;;;6.00;98.00;;;;;;5032135;28;20456;-61
2023/04/15 06:26:15;;;;;;;10.30;1.90;;;6.10;98.00;;;;;;5032242;28;20527;-62
2023/04/15 06:28:42;;;;;;;1.93;1.70;;;6.20;98.00;;;;;;5032153;28;20489;-62
2023/04/15 06:31:09;;;;;;;3.13;1.60;;;6.30;98.00;;;;;;5030850;28;20456;-62
2023/04/15 06:33:37;;;;;;;5.77;2.20;;;6.50;98.00;;;;;;5032024;28;20461;-62
2023/04/15 06:36:05;;;;;;;3.57;2.10;;;6.70;98.00;;;;;;5031913;28;20533;-63
2023/04/15 06:38:34;;;;;;;2.60;1.77;;;6.80;98.00;;;;;;5031983;28;20514;-62
2023/04/15 06:41:01;;;;;;;2.23;1.43;;;7.00;98.00;;;;;;5031689;28;20484;-63
2023/04/15 06:43:28;;;;;;;2.70;2.10;;;7.10;98.00;;;;;;5031832;28;20472;-63
2023/04/15 06:45:55;;;;;;;4.50;2.20;;;7.20;98.00;;;;;;5031742;28;20697;-62
2023/04/15 06:48:22;;;;;;;2.23;1.97;;;7.40;98.00;;;;;;5031569;28;20932;-64
2023/04/15 06:50:50;;;;;;;3.23;2.17;;;7.40;98.00;;;;;;5031046;28;20559;-62
2023/04/15 06:53:19;;;;;;;3.60;2.10;;;7.30;98.00;;;;;;5030068;28;20466;-63
2023/04/15 06:55:49;;;;;;;3.53;2.10;;;7.10;98.00;;;;;;5031182;28;20449;-61
2023/04/15 06:58:16;;;;;;;7.47;2.27;;;7.20;98.00;;;;;;5032002;28;20466;-64
2023/04/15 07:00:44;;;;;;;4.37;2.27;;;7.30;98.00;;;;;;5031710;28;20457;-62
2023/04/15 07:03:13;;;;;;;6.07;1.90;;;7.50;98.00;;;;;;5031718;28;20879;-62
2023/04/15 07:05:42;;;;;;;3.80;2.53;;;7.60;98.00;;;;;;5031725;28;20521;-64
2023/04/15 07:08:09;;;;;;;1.80;1.63;;;7.80;98.00;;;;;;5031762;28;20454;-63
2023/04/15 07:10:38;;;;;;;2.73;1.97;;;7.90;98.00;;;;;;5031688;28;20492;-61
2023/04/15 07:13:07;;;;;;;2.77;2.17;;;8.00;98.00;;;;;;5031748;28;20951;-62
2023/04/15 07:15:35;;;;;;;3.57;2.40;;;8.10;98.00;;;;;;5031898;28;20452;-63
2023/04/15 07:18:02;;;;;;;3.13;2.20;;;8.20;98.00;;;;;;5031905;28;21001;-62
2023/04/15 07:20:29;;;;;;;3.10;2.10;;;8.30;98.00;;;;;;5030484;28;20815;-62
2023/04/15 07:22:57;;;;;;;5.33;2.57;;;8.20;98.00;;;;;;5031659;28;20519;-60
2023/04/15 07:25:24;;;;;;;4.03;2.10;;;8.30;98.00;;;;;;5031298;28;20552;-62
2023/04/15 07:27:53;;;;;;;5.03;2.50;;;8.50;98.00;;;;;;5029430;28;20541;-62
2023/04/15 07:30:20;;;;;;;6.33;2.70;;;8.40;98.00;;;;;;5030534;28;20536;-63
2023/04/15 07:32:47;;;;;;;3.67;2.43;;;8.50;98.00;;;;;;5034680;28;20513;-62
2023/04/15 07:35:14;;;;;;;5.07;2.90;;;8.70;98.00;;;;;;5034698;28;20949;-63
2023/04/15 07:37:43;;;;;;;4.60;2.50;;;8.90;98.00;;;;;;5034837;28;20451;-62
2023/04/15 07:40:11;;;;;;;5.20;2.50;;;9.10;98.00;;;;;;5033716;28;20466;-63
2023/04/15 07:42:38;;;;;;;6.57;3.10;;;9.40;98.00;;;;;;5034799;28;20508;-63
2023/04/15 07:45:08;;;;;;;4.17;2.63;;;9.60;98.00;;;;;;5033181;28;20558;-63
2023/04/15 07:47:35;;;;;;;5.40;2.90;;;9.70;98.00;;;;;;5034936;28;20662;-63
2023/04/15 07:50:03;;;;;;;6.33;2.50;;;9.80;98.00;;;;;;5034686;28;20490;-65
2023/04/15 07:52:30;;;;;;;6.13;2.40;;;9.90;98.00;;;;;;5034770;28;20461;-61
2023/04/15 07:54:57;;;;;;;4.53;3.00;;;9.90;98.00;;;;;;5034822;28;20487;-64
2023/04/15 07:57:24;;;;;;;3.80;2.63;;;10.00;98.00;;;;;;5035084;28;20505;-65
2023/04/15 07:59:52;;;;;;;6.13;2.20;;;10.00;98.00;;;;;;5033607;28;21086;-65
2023/04/15 08:02:21;;;;;;;3.30;2.47;;;10.30;98.00;;;;;;5034793;28;20464;-63
2023/04/15 08:04:48;;;;;;;4.30;2.50;;;10.40;98.00;;;;;;5042931;28;20505;-63
2023/04/15 08:07:15;;;;;;;3.30;2.10;;;10.60;98.00;;;;;;5043954;28;20552;-64
2023/04/15 08:09:42;;;;;;;3.43;2.37;;;10.70;98.00;;;;;;5249733;22;20528;-62
2023/04/15 08:12:12;;;;;;;4.30;2.50;;;10.90;98.00;;;;;;5045214;28;20451;-63
2023/04/15 08:14:39;;;;;;;4.30;2.60;;;11.00;98.00;;;;;;5040773;28;20458;-63
2023/04/15 08:17:06;;;;;;;3.80;2.20;;;11.20;98.00;;;;;;5047307;28;20518;-65
2023/04/15 08:19:34;;;;;;;2.50;1.90;;;11.20;98.00;;;;;;5054546;28;20552;-65
2023/04/15 08:22:02;;;;;;;3.80;2.17;;;11.30;98.00;;;;;;5054091;28;20456;-64
2023/04/15 08:24:31;;;;;;;11.73;2.90;;;11.40;98.00;;;;;;5054333;28;21000;-64
2023/04/15 08:26:58;;;;;;;3.13;1.97;;;11.50;98.00;;;;;;5052858;28;20450;-64
2023/04/15 08:29:26;;;;;;;3.13;2.07;;;11.50;98.00;;;;;;5052882;28;20504;-65
2023/04/15 08:31:54;;;;;;;4.50;2.20;;;11.60;98.00;;;;;;5053991;28;20449;-65
2023/04/15 08:34:24;;;;;;;6.20;2.17;;;11.80;98.00;;;;;;5036399;28;20490;-61
2023/04/15 08:36:53;;;;;;;2.97;1.90;;;12.00;98.00;;;;;;5054108;28;20952;-61
2023/04/15 08:39:20;;;;;;;2.63;1.57;;;12.20;98.00;;;;;;5053834;28;20477;-65
2023/04/15 08:41:51;;;;;;;3.90;1.97;;;12.20;98.00;;;;;;5053747;28;20459;-63
2023/04/15 08:44:21;;;;;;;2.87;1.90;;;12.20;98.00;;;;;;5053663;28;20462;-62
2023/04/15 08:46:48;;;;;;;7.33;2.27;;;12.30;98.00;;;;;;5053889;28;20454;-63
2023/04/15 08:49:17;;;;;;;7.60;2.13;;;12.40;98.00;;;;;;5053680;28;20475;-63
2023/04/15 08:51:45;;;;;;;3.80;2.10;;;12.40;98.00;;;;;;5052778;28;20555;-63
2023/04/15 08:54:14;;;;;;;3.27;2.37;;;12.40;98.00;;;;;;5053807;28;20464;-66
2023/04/15 08:56:42;;;;;;;2.10;1.70;;;12.40;98.00;;;;;;5053755;28;21118;-64
2023/04/15 08:59:10;;;;;;;3.50;2.17;;;12.50;98.00;;;;;;5053599;28;20517;-64
2023/04/15 09:01:38;;;;;;;4.10;2.50;;;12.60;98.00;;;;;;5053501;28;20464;-64
2023/04/15 09:04:06;;;;;;;4.70;2.10;;;12.70;98.00;;;;;;5053837;28;20939;-64
2023/04/15 09:06:34;;;;;;;4.40;2.10;;;12.80;98.00;;;;;;5053672;28;20456;-64
2023/04/15 09:09:01;;;;;;;7.43;2.73;;;12.90;98.00;;;;;;5053524;28;20506;-64
2023/04/15 09:11:31;;;;;;;6.57;2.23;;;12.90;98.00;;;;;;5053554;28;20482;-65
2023/04/15 09:14:02;;;;;;;2.73;1.97;;;13.10;98.00;;;;;;5053500;28;20467;-63
2023/04/15 09:16:29;;;;;;;8.03;2.40;;;13.20;98.00;;;;;;5053277;28;20472;-63
2023/04/15 09:18:56;;;;;;;4.43;2.50;;;13.20;98.00;;;;;;5052986;28;20460;-64
2023/04/15 09:21:25;;;;;;;9.53;2.50;;;13.30;98.00;;;;;;5053389;28;20464;-64
2023/04/15 09:23:57;;;;;;;3.73;2.37;;;13.30;98.00;;;;;;5053332;28;20987;-63
2023/04/15 09:26:36;;;;;;;6.97;2.00;;;13.30;98.00;;;;;;5052931;28;21051;-64
2023/04/15 09:29:06;;;;;;;2.50;1.77;;;13.40;98.00;;;;;;5053110;28;20455;-64
2023/04/15 09:31:35;;;;;;;2.10;1.73;;;13.40;98.00;;;;;;5052793;28;21084;-63
2023/04/15 09:34:02;;;;;;;2.90;2.37;;;13.60;98.00;;;;;;5052669;28;20982;-65
2023/04/15 09:36:30;;;;;;;7.20;2.20;;;13.80;98.00;;;;;;5051175;28;20460;-63
2023/04/15 09:38:58;;;;;;;3.23;2.10;;;14.00;98.00;;;;;;5052785;28;20446;-63
2023/04/15 09:41:29;;;;;;;2.83;1.90;;;14.10;98.00;;;;;;5046751;28;20846;-64
2023/04/15 09:43:57;;;;;;;2.40;1.73;;;14.20;95.80;;;;;;5029778;28;20467;-64
2023/04/15 09:46:43;;;;;;;5.53;2.20;;;14.30;96.00;;;;;;5032148;28;20515;-66
2023/04/15 09:49:10;;;;;;;3.50;2.00;;;14.40;95.90;;;;;;5050691;28;20529;-64
2023/04/15 09:51:38;;;;;;;2.30;1.83;;;14.70;96.30;;;;;;5052708;28;20504;-63
2023/04/15 09:54:06;;;;;;;2.77;1.67;;;14.90;95.70;;;;;;5046722;28;20834;-64
2023/04/15 09:56:36;;;;;;;3.10;1.70;;;15.10;95.50;;;;;;5052550;28;20545;-65
2023/04/15 09:59:05;;;;;;;2.60;1.63;;;15.40;94.90;;;;;;5052498;28;20519;-64
2023/04/15 10:01:34;;;;;;;2.57;1.80;;;15.50;93.30;;;;;;5052470;28;20442;-63
2023/04/15 10:04:05;;;;;;;2.57;2.00;;;15.80;93.70;;;;;;5052084;28;20472;-63
2023/04/15 10:06:33;;;;;;;5.60;2.17;;;15.90;93.40;;;;;;5051083;28;20463;-64
2023/04/15 10:09:01;;;;;;;5.67;2.27;;;15.90;92.30;;;;;;5052453;28;20507;-64
2023/04/15 10:11:29;;;;;;;3.63;1.70;;;15.90;92.40;;;;;;5051565;28;20485;-63
2023/04/15 10:13:57;;;;;;;3.20;2.10;;;15.80;90.90;;;;;;5050985;28;20453;-63
2023/04/15 10:16:28;;;;;;;3.70;2.07;;;15.60;91.00;;;;;;5052489;28;20473;-64
2023/04/15 10:18:57;;;;;;;5.20;2.30;;;15.40;93.40;;;;;;5050216;28;20548;-63
2023/04/15 10:21:25;;;;;;;3.13;2.20;;;15.40;95.00;;;;;;5051705;28;20450;-63
2023/04/15 10:23:52;;;;;;;3.60;2.27;;;15.40;93.30;;;;;;5051796;28;20986;-63
2023/04/15 10:26:19;;;;;;;3.77;2.00;;;15.40;94.80;;;;;;5052168;28;20523;-64
2023/04/15 10:28:48;;;;;;;4.73;2.40;;;15.50;96.60;;;;;;5051767;28;20470;-63
2023/04/15 10:31:17;;;;;;;6.93;2.70;;;15.50;95.50;;;;;;5051728;28;20577;-63
2023/04/15 10:33:47;;;;;;;3.47;2.40;;;15.50;93.70;;;;;;5051845;28;20484;-64
2023/04/15 10:36:15;;;;;;;4.87;2.63;;;15.30;93.80;;;;;;5052036;28;20442;-63
2023/04/15 10:38:44;;;;;;;5.20;2.60;;;15.40;95.70;;;;;;5051987;28;20509;-63
2023/04/15 10:41:19;;;;;;;3.63;2.40;;;15.50;95.20;;;;;;5051773;28;20457;-64
2023/04/15 10:43:49;;;;;;;2.70;1.90;;;15.70;96.00;;;;;;5051910;28;20544;-64
2023/04/15 10:46:19;;;;;;;5.93;2.13;;;15.80;94.50;;;;;;5050787;28;20441;-64
2023/04/15 10:48:53;;;;;;;4.47;2.50;;;15.80;94.30;;;;;;5043860;28;20482;-63
2023/04/15 10:51:31;;;;;;;3.70;2.30;;;15.70;93.10;;;;;;5052581;28;20496;-64
2023/04/15 10:54:09;;;;;;;5.60;2.27;;;15.60;92.50;;;;;;5051780;28;20532;-64
2023/04/15 10:56:37;;;;;;;6.00;2.33;;;15.70;93.00;;;;;;5051419;28;20450;-63
2023/04/15 10:59:06;;;;;;;3.53;1.83;;;15.80;92.90;;;;;;5051732;28;20453;-63
2023/04/15 11:01:53;;;;;;;3.00;2.20;;;15.70;92.40;;;;;;5051659;28;20454;-63
2023/04/15 11:05:01;;;;;;;4.10;2.20;;;15.80;91.90;;;;;;5051619;28;20454;-63
2023/04/15 11:07:37;;;;;;;5.30;2.40;;;15.80;91.30;;;;;;5043147;28;20564;-66
2023/04/15 11:10:25;;;;;;;3.57;2.40;;;15.80;93.30;;;;;;5055409;28;21147;-64
2023/04/15 11:12:53;;;;;;;4.03;2.50;;;15.80;91.50;;;;;;5055316;28;20468;-63
2023/04/15 11:15:29;;;;;;;8.17;3.00;;;15.80;92.50;;;;;;5055452;28;20457;-61
2023/04/15 11:17:57;;;;;;;3.77;2.40;;;15.80;92.40;;;;;;5055383;28;20453;-65
2023/04/15 11:20:24;;;;;;;4.23;2.40;;;15.80;90.30;;;;;;5055404;28;20544;-63
2023/04/15 11:22:54;;;;;;;8.63;2.97;;;15.70;88.70;;;;;;5055483;28;20932;-64
2023/04/15 11:25:25;;;;;;;6.80;3.03;;;15.60;89.10;;;;;;5053786;28;20481;-64
2023/04/15 11:27:53;;;;;;;6.00;2.80;;;15.60;89.70;;;;;;5055313;28;21002;-64
2023/04/15 11:30:22;;;;;;;6.80;2.70;;;15.60;87.90;;;;;;5055362;28;20799;-68
2023/04/15 11:32:58;;;;;;;3.00;2.10;;;15.60;89.40;;;;;;5054409;28;20507;-64
2023/04/15 11:35:25;;;;;;;5.10;2.07;;;15.60;88.80;;;;;;5054824;28;20866;-64
2023/04/15 11:37:55;;;;;;;5.33;2.93;;;15.60;89.90;;;;;;5053166;28;20982;-63
2023/04/15 11:40:24;;;;;;;7.10;2.60;;;15.50;90.30;;;;;;5054730;28;20510;-64
2023/04/15 11:43:05;;;;;;;4.17;2.50;;;15.50;91.20;;;;;;5054420;28;20457;-64
2023/04/15 11:45:32;;;;;;;5.80;2.70;;;15.40;90.50;;;;;;5054786;28;20562;-64
2023/04/15 11:48:06;;;;;;;5.00;2.60;;;15.40;91.70;;;;;;5054200;28;20458;-64
2023/04/15 11:50:34;;;;;;;3.67;2.33;;;15.40;92.20;;;;;;5054363;28;20659;-64
2023/04/15 11:53:04;;;;;;;4.10;2.40;;;15.50;91.80;;;;;;5053039;28;20745;-63
2023/04/15 11:55:45;;;;;;;5.07;2.80;;;15.60;92.20;;;;;;5054275;28;20527;-65
2023/04/15 11:58:14;;;;;;;4.47;2.43;;;15.60;92.30;;;;;;5054281;28;20463;-64
2023/04/15 12:00:46;;;;;;;4.23;2.67;;;15.60;91.10;;;;;;5054060;28;20462;-64
2023/04/15 12:03:19;;;;;;;5.00;3.10;;;15.70;91.50;;;;;;5054298;28;20480;-64
2023/04/15 12:06:06;;;;;;;7.83;3.43;;;15.70;90.30;;;;;;5053067;28;20519;-65
2023/04/15 12:09:01;;;;;;;3.90;2.47;;;15.60;92.20;;;;;;5054554;28;20476;-64
2023/04/15 12:11:35;;;;;;;3.60;2.40;;;15.50;92.10;;;;;;5054363;28;20485;-64
2023/04/15 12:14:07;;;;;;;4.50;2.57;;;15.50;92.10;;;;;;5054013;28;20524;-62
2023/04/15 12:16:35;;;;;;;4.13;2.60;;;15.30;91.50;;;;;;5053985;28;20457;-66
2023/04/15 12:19:08;;;;;;;6.47;2.60;;;15.20;91.40;;;;;;5053583;28;20461;-64
2023/04/15 12:21:36;;;;;;;6.80;2.60;;;15.00;91.00;;;;;;5053790;28;20552;-64
2023/04/15 12:24:06;;;;;;;5.00;2.80;;;14.80;91.90;;;;;;5053724;28;20948;-64
2023/04/15 12:26:36;;;;;;;3.83;2.20;;;14.80;92.50;;;;;;5053700;28;20449;-63
2023/04/15 12:29:05;;;;;;;3.13;2.17;;;14.70;92.70;;;;;;5054058;28;20552;-63
2023/04/15 12:31:33;;;;;;;3.03;2.13;;;14.60;89.30;;;;;;5053495;28;20564;-62
2023/04/15 12:34:01;;;;;;;4.00;2.47;;;14.50;91.40;;;;;;5053674;28;20467;-65
2023/04/15 12:36:29;;;;;;;3.87;2.07;;;14.40;91.60;;;;;;5053603;28;20457;-64
2023/04/15 12:38:56;;;;;;;3.80;2.33;;;14.40;91.20;;;;;;5053554;28;20892;-64
2023/04/15 12:41:26;;;;;;;6.30;2.60;;;14.30;89.70;;;;;;5052292;28;20459;-64
2023/04/15 12:43:53;;;;;;;5.50;2.30;;;14.20;92.40;;;;;;5053322;28;20492;-63
2023/04/15 12:46:20;;;;;;;3.23;2.23;;;14.10;92.80;;;;;;5053215;28;20454;-63
2023/04/15 12:48:47;;;;;;;3.40;2.23;;;14.00;94.20;;;;;;5052223;28;20472;-63
2023/04/15 12:51:14;;;;;;;3.70;2.47;;;13.80;93.10;;;;;;5053188;28;20489;-66
2023/04/15 12:53:41;;;;;;;3.20;2.10;;;13.70;94.50;;;;;;5053386;28;20545;-64
2023/04/15 12:56:09;;;;;;;3.57;2.30;;;13.60;96.20;;;;;;5053153;28;20814;-63
2023/04/15 12:58:37;;;;;;;4.20;2.17;;;13.50;96.10;;;;;;5053170;28;20456;-65
2023/04/15 13:01:05;;;;;;;3.90;2.10;;;13.40;95.80;;;;;;5052903;28;20597;-63